Ponta da Areia, Brazil
Current Conditions -  °F | °C
As of 4:00 AM on Thursday 23 Oct 2014 (Local Time) from SBPS Reporting Station
Light Rain Light Rain  
Wind Chill: 70°   Ceiling: 800
Heat Index: 70°   Visibility: 1.2mi
Dew Point: 68°   Wind: 6mph
Humidity: 94%   Direction: 170°S
Pressure: 30.06"   Gusts: NA
Location:  17.75°S, 39.23°W
Report Text: SBPS 230700Z 17005KT 2000 -RA BKN008 BKN015 OVC070 21/20 Q1018
Loading
Personal Weather Stations






























Interactive Weather Map
Tropical Storm Tracking
New forecast layout! Learn more

10-Day Weather Forecast

Advertisements
Track Severe Weather on mobile